Time;durP1;ratioP1;P1;durP2;ratioP2;P2;SDS_P1;SDS_P2;PMS_P1;PMS_P2;Temp;Humidity;BMP_temperature;BMP_pressure;BME280_temperature;BME280_humidity;BME280_pressure;Samples;Min_cycle;Max_cycle;Signal;HPM_P1;HPM_P2
2023/03/06 00:00:54;;;;;;;21.27;10.73;;;;;;;4.83;63.10;99893.66;5007033;28;20069;-71
2023/03/06 00:03:21;;;;;;;19.25;10.60;;;;;;;4.82;63.27;99893.78;5007880;28;20037;-71
2023/03/06 00:05:46;;;;;;;22.88;11.30;;;;;;;4.82;63.30;99893.78;5007562;28;20041;-72
2023/03/06 00:08:12;;;;;;;19.67;10.40;;;;;;;4.74;63.22;99881.88;5006627;28;20045;-71
2023/03/06 00:10:37;;;;;;;19.55;10.82;;;;;;;4.83;63.51;99900.81;5006208;28;20535;-71
2023/03/06 00:13:06;;;;;;;19.27;11.55;;;;;;;4.81;63.70;99884.97;5006885;28;20034;-71
2023/03/06 00:15:32;;;;;;;21.00;12.05;;;;;;;4.78;63.76;99889.63;5005734;28;20030;-71
2023/03/06 00:17:57;;;;;;;23.55;13.27;;;;;;;4.82;63.81;99883.16;5006481;28;20030;-71
2023/03/06 00:20:24;;;;;;;26.67;14.38;;;;;;;4.81;63.86;99882.31;5006711;28;20030;-71
2023/03/06 00:22:50;;;;;;;26.75;14.20;;;;;;;4.73;63.77;99868.72;5006533;28;20041;-71
2023/03/06 00:25:18;;;;;;;24.13;14.30;;;;;;;4.82;63.60;99884.00;5007142;28;20030;-65
2023/03/06 00:27:45;;;;;;;26.15;14.30;;;;;;;4.81;63.50;99878.81;5003843;28;20034;-65
2023/03/06 00:30:13;;;;;;;20.77;13.30;;;;;;;4.78;63.77;99868.38;5004514;28;20486;-65
2023/03/06 00:32:38;;;;;;;18.80;11.00;;;;;;;4.70;63.84;99853.00;5008506;28;20463;-65
2023/03/06 00:35:04;;;;;;;23.10;11.15;;;;;;;4.80;64.04;99871.78;5010315;28;20028;-65
2023/03/06 00:37:30;;;;;;;18.05;9.90;;;;;;;4.80;63.73;99869.97;5003691;28;20046;-65
2023/03/06 00:39:55;;;;;;;17.85;10.23;;;;;;;4.84;63.63;99875.94;5005201;28;20033;-65
2023/03/06 00:42:21;;;;;;;17.85;9.73;;;;;;;4.85;63.38;99877.63;5006131;28;20026;-66
2023/03/06 00:44:46;;;;;;;19.42;11.30;;;;;;;4.85;63.36;99882.94;5004625;28;20044;-65
2023/03/06 00:47:12;;;;;;;18.08;10.05;;;;;;;4.85;63.10;99882.94;5005856;28;20076;-65
2023/03/06 00:49:38;;;;;;;17.58;9.95;;;;;;;4.85;63.23;99873.16;5006064;28;20076;-66
2023/03/06 00:52:04;;;;;;;18.95;10.85;;;;;;;4.78;63.33;99861.28;5005710;28;20512;-65
2023/03/06 00:54:29;;;;;;;19.33;9.85;;;;;;;4.86;63.38;99882.00;5005409;28;20105;-66
2023/03/06 00:56:55;;;;;;;17.23;9.20;;;;;;;4.86;63.53;99876.69;5005874;28;20037;-66
2023/03/06 00:59:20;;;;;;;17.25;9.82;;;;;;;4.88;63.58;99878.25;5005192;28;20076;-65
2023/03/06 01:01:46;;;;;;;16.35;9.18;;;;;;;4.83;63.80;99869.75;5024817;22;20049;-68
2023/03/06 01:04:11;;;;;;;17.65;9.18;;;;;;;4.84;63.74;99871.47;5013134;28;20093;-69
2023/03/06 01:06:37;;;;;;;17.58;10.07;;;;;;;4.83;63.74;99867.09;5031287;28;20029;-69
2023/03/06 01:09:03;;;;;;;15.02;8.52;;;;;;;4.84;63.86;99871.47;5030309;28;20024;-68
2023/03/06 01:11:30;;;;;;;16.50;9.02;;;;;;;4.87;63.89;99868.56;5031343;28;20033;-68
2023/03/06 01:13:55;;;;;;;16.30;8.98;;;;;;;4.83;64.14;99863.63;5029585;28;20041;-69
2023/03/06 01:16:21;;;;;;;15.57;8.98;;;;;;;4.87;63.90;99865.09;5029499;28;20025;-68
2023/03/06 01:18:47;;;;;;;20.88;9.82;;;;;;;4.84;63.68;99860.00;5029765;28;20029;-68
2023/03/06 01:21:12;;;;;;;16.10;9.20;;;;;;;4.84;64.04;99854.69;5029601;28;20514;-68
2023/03/06 01:23:38;;;;;;;20.15;9.30;;;;;;;4.83;64.12;99859.13;5030173;28;20025;-68
2023/03/06 01:26:04;;;;;;;18.23;9.40;;;;;;;4.82;64.27;99854.78;5030495;28;20024;-68
2023/03/06 01:28:32;;;;;;;21.95;10.35;;;;;;;4.83;64.32;99853.81;5015319;28;20112;-68
2023/03/06 01:31:00;;;;;;;15.98;9.38;;;;;;;4.75;64.50;99840.25;5034003;28;20037;-69
2023/03/06 01:33:26;;;;;;;16.00;8.90;;;;;;;4.78;64.74;99841.81;5015958;28;20033;-68
2023/03/06 01:35:51;;;;;;;15.77;8.85;;;;;;;4.78;64.78;99846.16;5015815;28;20420;-68
2023/03/06 01:38:17;;;;;;;17.95;10.40;;;;;;;4.80;64.88;99845.22;5017569;28;20057;-68
2023/03/06 01:40:43;;;;;;;17.45;9.75;;;;;;;4.79;64.65;99841.72;5015790;28;20040;-68
2023/03/06 01:43:11;;;;;;;23.45;11.18;;;;;;;4.85;64.23;99846.59;5016919;28;20033;-69
2023/03/06 01:45:36;;;;;;;19.73;10.45;;;;;;;4.84;64.54;99831.63;5015148;28;20431;-68
2023/03/06 01:48:02;;;;;;;21.88;10.27;;;;;;;4.84;64.82;99847.56;5034502;28;20140;-69
2023/03/06 01:50:28;;;;;;;19.70;10.55;;;;;;;4.80;64.76;99838.09;5014360;28;20495;-68
2023/03/06 01:52:58;;;;;;;20.08;11.10;;;;;;;4.77;64.81;99829.50;5030976;28;20156;-68
2023/03/06 01:55:31;;;;;;;20.67;11.55;;;;;;;4.78;64.92;99833.84;5013030;28;20116;-69
2023/03/06 01:58:00;;;;;;;18.77;11.45;;;;;;;4.78;64.97;99827.56;5013288;28;20103;-67
2023/03/06 02:00:27;;;;;;;18.13;11.07;;;;;;;4.75;65.13;99824.31;5012983;28;20041;-68
2023/03/06 02:03:04;;;;;;;23.80;11.95;;;;;;;4.78;65.14;99829.41;5031147;28;20057;-68
2023/03/06 02:05:29;;;;;;;16.95;10.27;;;;;;;4.80;65.23;99821.31;5031131;28;20044;-68
2023/03/06 02:07:56;;;;;;;17.75;10.98;;;;;;;4.81;65.14;99823.88;5013919;28;20029;-68
2023/03/06 02:10:22;;;;;;;20.55;12.60;;;;;;;4.77;65.35;99819.72;5032824;28;20045;-68
2023/03/06 02:12:49;;;;;;;22.35;12.55;;;;;;;4.78;65.39;99819.59;5037612;28;20115;-67
2023/03/06 02:15:18;;;;;;;21.33;11.95;;;;;;;4.81;65.61;99815.03;5032225;28;20469;-68
2023/03/06 02:17:45;;;;;;;19.50;11.80;;;;;;;4.82;65.61;99822.03;5014472;28;20037;-68
2023/03/06 02:20:23;;;;;;;22.25;12.07;;;;;;;4.83;65.60;99821.94;5032624;28;20478;-69
2023/03/06 02:23:09;;;;;;;24.75;12.07;;;;;;;4.72;65.52;99801.47;5031176;28;20086;-68
2023/03/06 02:25:48;;;;;;;22.20;12.07;;;;;;;4.81;65.49;99817.69;5031160;28;20155;-68
2023/03/06 02:28:16;;;;;;;21.25;12.35;;;;;;;4.69;65.49;99793.75;5031959;28;20033;-68
2023/03/06 02:30:43;;;;;;;21.85;12.05;;;;;;;4.74;65.62;99804.84;5032552;28;20108;-68
2023/03/06 02:33:14;;;;;;;21.20;11.73;;;;;;;4.83;65.58;99818.44;5032281;28;20030;-69
2023/03/06 02:35:45;;;;;;;18.25;11.25;;;;;;;4.87;65.48;99817.25;5032061;28;20017;-69
2023/03/06 02:38:16;;;;;;;19.98;11.43;;;;;;;4.83;65.47;99813.97;5031117;28;20044;-69
2023/03/06 02:40:45;;;;;;;21.73;11.68;;;;;;;4.83;65.28;99816.63;5032817;28;20034;-68
2023/03/06 02:43:14;;;;;;;20.73;11.25;;;;;;;4.82;65.27;99820.25;5032024;28;20388;-68
2023/03/06 02:45:45;;;;;;;23.20;11.80;;;;;;;4.84;65.88;99812.16;5031835;28;20086;-69
2023/03/06 02:48:12;;;;;;;21.45;12.48;;;;;;;4.84;65.71;99821.00;5014174;28;20072;-68
2023/03/06 02:50:39;;;;;;;20.35;12.00;;;;;;;4.77;65.70;99817.06;5031814;28;20025;-69
2023/03/06 02:53:05;;;;;;;19.92;10.95;;;;;;;4.83;65.69;99819.28;5014013;28;20110;-69
2023/03/06 02:55:31;;;;;;;21.17;11.63;;;;;;;4.80;66.05;99810.69;5032706;28;20021;-68
2023/03/06 02:57:56;;;;;;;20.88;12.10;;;;;;;4.71;65.80;99802.44;5031524;28;20047;-69
2023/03/06 03:00:22;;;;;;;19.23;10.98;;;;;;;4.79;66.40;99812.50;5013537;28;20052;-69
2023/03/06 03:02:47;;;;;;;21.35;11.55;;;;;;;4.74;65.95;99796.91;5013350;28;20065;-69
2023/03/06 03:05:13;;;;;;;18.58;12.13;;;;;;;4.77;66.38;99801.13;5031629;28;20018;-67
2023/03/06 03:07:39;;;;;;;21.13;11.50;;;;;;;4.77;66.23;99787.84;5015496;28;20040;-67
2023/03/06 03:10:05;;;;;;;19.33;11.35;;;;;;;4.72;66.16;99780.25;5013489;28;20030;-68
2023/03/06 03:12:31;;;;;;;20.88;11.60;;;;;;;4.70;66.02;99768.00;5031377;28;20376;-68
2023/03/06 03:14:56;;;;;;;20.23;11.02;;;;;;;4.77;65.75;99773.72;5033730;28;20024;-69
2023/03/06 03:17:22;;;;;;;18.85;11.27;;;;;;;4.78;65.62;99787.72;5013468;28;21118;-69
2023/03/06 03:19:48;;;;;;;17.85;10.32;;;;;;;4.75;65.44;99777.31;5031285;28;20037;-69
2023/03/06 03:22:13;;;;;;;18.88;11.98;;;;;;;4.76;65.62;99783.50;5012984;28;20040;-69
2023/03/06 03:24:39;;;;;;;19.95;10.45;;;;;;;4.70;65.50;99773.31;5029527;28;20071;-69
2023/03/06 03:27:05;;;;;;;20.10;10.13;;;;;;;4.72;65.59;99777.59;5029450;28;20068;-69
2023/03/06 03:29:30;;;;;;;18.20;10.70;;;;;;;4.75;65.56;99779.97;5031415;28;20544;-69
2023/03/06 03:31:56;;;;;;;21.25;11.13;;;;;;;4.75;65.64;99776.50;5029755;28;20029;-69
2023/03/06 03:34:21;;;;;;;23.38;12.13;;;;;;;4.73;65.85;99779.25;5029258;28;20037;-69
2023/03/06 03:36:47;;;;;;;18.52;10.45;;;;;;;4.77;66.13;99785.19;5029221;28;20104;-69
2023/03/06 03:39:13;;;;;;;22.92;12.07;;;;;;;4.75;66.20;99779.16;5029266;28;20033;-69
2023/03/06 03:41:38;;;;;;;17.67;10.55;;;;;;;4.74;66.06;99780.97;5030596;28;20500;-69
2023/03/06 03:44:04;;;;;;;23.13;11.32;;;;;;;4.72;66.32;99772.28;5013336;28;20037;-69
2023/03/06 03:46:29;;;;;;;19.58;10.70;;;;;;;4.67;66.71;99768.22;5029465;28;20528;-69
2023/03/06 03:48:54;;;;;;;23.45;11.95;;;;;;;4.64;66.69;99773.75;5029126;28;20040;-69
2023/03/06 03:51:20;;;;;;;22.25;11.48;;;;;;;4.64;66.56;99769.31;5028893;28;20397;-69
2023/03/06 03:53:46;;;;;;;19.08;11.15;;;;;;;4.67;66.73;99782.38;5031521;28;20029;-69
2023/03/06 03:56:12;;;;;;;19.60;10.98;;;;;;;4.69;66.65;99776.94;5011159;28;20461;-69
2023/03/06 03:58:38;;;;;;;21.15;11.05;;;;;;;4.75;66.37;99779.97;5030911;28;20025;-69
2023/03/06 04:01:04;;;;;;;18.52;10.70;;;;;;;4.70;66.28;99766.22;5012767;28;20500;-68
2023/03/06 04:03:29;;;;;;;20.52;10.80;;;;;;;4.75;65.74;99771.19;5028460;28;20041;-67
2023/03/06 04:05:56;;;;;;;23.42;11.57;;;;;;;4.75;65.19;99773.84;5030384;28;20091;-68
2023/03/06 04:08:23;;;;;;;20.38;9.52;;;;;;;4.77;65.06;99776.41;5035695;28;20079;-69
2023/03/06 04:10:50;;;;;;;18.23;11.02;;;;;;;4.75;64.71;99765.88;5034168;28;20029;-68
2023/03/06 04:13:18;;;;;;;18.27;9.80;;;;;;;4.67;64.82;99762.91;5034196;28;20040;-68
2023/03/06 04:15:43;;;;;;;19.10;11.02;;;;;;;4.71;64.68;99759.94;5032473;28;20078;-68
2023/03/06 04:18:09;;;;;;;18.25;10.38;;;;;;;4.71;64.82;99767.91;5032761;28;20116;-67
2023/03/06 04:20:34;;;;;;;21.73;10.32;;;;;;;4.76;64.65;99775.53;5014307;28;20029;-69
2023/03/06 04:23:00;;;;;;;20.83;10.43;;;;;;;4.78;64.50;99776.28;5031974;28;20033;-68
2023/03/06 04:25:25;;;;;;;17.48;10.18;;;;;;;4.68;64.40;99769.94;5031635;28;20029;-68
2023/03/06 04:27:51;;;;;;;19.70;10.88;;;;;;;4.80;64.44;99776.16;5030696;28;20029;-68
2023/03/06 04:30:16;;;;;;;18.50;10.25;;;;;;;4.77;64.71;99781.72;5031673;28;20100;-68
2023/03/06 04:32:41;;;;;;;19.50;10.60;;;;;;;4.76;64.83;99775.53;5030848;28;20025;-68
2023/03/06 04:35:07;;;;;;;15.95;9.93;;;;;;;4.74;64.89;99777.44;5035492;28;20025;-68
2023/03/06 04:37:33;;;;;;;19.67;11.20;;;;;;;4.74;65.22;99774.78;5032827;28;20065;-69
2023/03/06 04:39:58;;;;;;;19.75;11.32;;;;;;;4.75;65.11;99771.19;5031817;28;20113;-68
2023/03/06 04:42:24;;;;;;;23.02;11.57;;;;;;;4.69;64.92;99755.69;5029961;28;20461;-68
2023/03/06 04:44:49;;;;;;;22.33;11.63;;;;;;;4.75;65.05;99763.22;5029647;28;20044;-68
2023/03/06 04:47:15;;;;;;;26.80;13.15;;;;;;;4.69;65.25;99761.88;5032566;28;20492;-67
2023/03/06 04:49:40;;;;;;;21.50;12.27;;;;;;;4.76;64.95;99764.91;5027835;28;20664;-68
2023/03/06 04:52:06;;;;;;;21.13;11.95;;;;;;;4.71;65.11;99761.75;5027665;28;20036;-68
2023/03/06 04:54:32;;;;;;;21.70;11.05;;;;;;;4.72;65.06;99766.09;5030680;28;20052;-68
2023/03/06 04:56:58;;;;;;;22.10;12.18;;;;;;;4.68;65.56;99754.00;5028542;28;20056;-68
2023/03/06 04:59:23;;;;;;;25.40;12.20;;;;;;;4.69;65.18;99758.34;5026835;28;20037;-68
2023/03/06 05:01:49;;;;;;;18.02;10.18;;;;;;;4.70;65.25;99757.38;5012385;28;20046;-68
2023/03/06 05:04:14;;;;;;;20.10;10.63;;;;;;;4.67;64.95;99755.81;5031619;28;20036;-68
2023/03/06 05:06:40;;;;;;;19.63;10.30;;;;;;;4.62;64.68;99736.69;5031802;28;20507;-67
2023/03/06 05:09:05;;;;;;;19.70;10.93;;;;;;;4.73;64.26;99749.19;5013677;28;20460;-69
2023/03/06 05:11:31;;;;;;;19.13;9.95;;;;;;;4.67;64.25;99746.97;5031504;28;20045;-68
2023/03/06 05:13:56;;;;;;;24.95;11.38;;;;;;;4.79;63.52;99754.06;5031532;28;20028;-69
2023/03/06 05:16:22;;;;;;;19.05;10.48;;;;;;;4.73;63.49;99747.41;5031088;28;20017;-68
2023/03/06 05:18:47;;;;;;;21.15;11.10;;;;;;;4.75;63.56;99747.28;5014975;28;20067;-68
2023/03/06 05:21:13;;;;;;;18.58;9.18;;;;;;;4.80;62.98;99754.91;5013258;28;20104;-68
2023/03/06 05:23:38;;;;;;;20.70;9.93;;;;;;;4.81;62.73;99759.25;5031303;28;20061;-68
2023/03/06 05:26:07;;;;;;;22.48;10.35;;;;;;;4.77;62.73;99750.66;5032636;28;20083;-68
2023/03/06 05:28:32;;;;;;;19.15;9.75;;;;;;;4.82;63.02;99763.59;5031708;28;20096;-68
2023/03/06 05:30:58;;;;;;;18.60;10.85;;;;;;;4.76;63.43;99751.63;5013522;28;20044;-68
2023/03/06 05:33:23;;;;;;;19.98;9.90;;;;;;;4.81;63.60;99765.44;5032686;28;20027;-68
2023/03/06 05:35:49;;;;;;;23.15;10.60;;;;;;;4.81;63.83;99762.78;5031360;28;20030;-69
2023/03/06 05:38:15;;;;;;;16.17;9.60;;;;;;;4.80;63.59;99754.91;5031081;28;20342;-69
2023/03/06 05:40:42;;;;;;;20.48;11.45;;;;;;;4.72;64.04;99751.03;5031182;28;20033;-69
2023/03/06 05:43:09;;;;;;;22.00;12.27;;;;;;;4.80;63.69;99755.75;5030973;28;20102;-69
2023/03/06 05:45:35;;;;;;;17.77;10.77;;;;;;;4.85;64.14;99763.38;5015719;28;20045;-69
2023/03/06 05:48:01;;;;;;;24.10;11.63;;;;;;;4.83;64.40;99766.16;5034621;28;20021;-69
2023/03/06 05:50:26;;;;;;;18.38;10.95;;;;;;;4.82;64.20;99771.56;5032371;28;20025;-67
2023/03/06 05:52:52;;;;;;;20.77;10.57;;;;;;;4.80;64.78;99766.38;5032854;28;20468;-67
2023/03/06 05:55:19;;;;;;;20.75;10.05;;;;;;;4.77;64.69;99757.81;5032534;28;20029;-69
2023/03/06 05:57:45;;;;;;;18.67;9.85;;;;;;;4.88;64.41;99782.63;5016353;28;20037;-68
2023/03/06 06:00:12;;;;;;;18.00;10.27;;;;;;;4.86;63.81;99768.59;5032182;28;20033;-68
2023/03/06 06:02:37;;;;;;;18.65;9.65;;;;;;;4.86;63.39;99765.09;5014144;28;20042;-68
2023/03/06 06:05:03;;;;;;;18.88;9.50;;;;;;;4.85;62.87;99761.59;5031529;28;20103;-70
2023/03/06 06:07:28;;;;;;;19.35;10.82;;;;;;;4.94;62.31;99770.69;5031798;28;20044;-69
2023/03/06 06:09:54;;;;;;;16.33;9.68;;;;;;;4.91;62.75;99766.47;5032616;28;20029;-69
2023/03/06 06:12:19;;;;;;;18.17;10.10;;;;;;;4.98;62.64;99778.31;5030969;28;20029;-70
2023/03/06 06:14:45;;;;;;;20.92;10.63;;;;;;;5.02;62.67;99771.81;5032665;28;20037;-69
2023/03/06 06:17:11;;;;;;;17.48;10.07;;;;;;;4.97;62.35;99760.69;5030701;28;20029;-69
2023/03/06 06:19:37;;;;;;;17.13;10.02;;;;;;;5.05;61.80;99763.63;5031622;28;20029;-69
2023/03/06 06:22:03;;;;;;;17.50;9.20;;;;;;;5.08;61.92;99766.03;5032001;28;20013;-70
2023/03/06 06:24:30;;;;;;;19.65;10.13;;;;;;;5.08;61.49;99758.06;5015255;28;20368;-69
2023/03/06 06:26:56;;;;;;;19.92;8.20;;;;;;;5.20;60.27;99773.13;5031436;28;20025;-70
2023/03/06 06:29:23;;;;;;;16.23;9.05;;;;;;;5.22;60.05;99765.03;5013100;28;20030;-69
2023/03/06 06:31:49;;;;;;;13.90;8.77;;;;;;;5.30;59.81;99771.47;5031136;28;20060;-69
2023/03/06 06:34:15;;;;;;;18.80;9.13;;;;;;;5.36;59.53;99772.81;5031871;28;20036;-69
2023/03/06 06:36:41;;;;;;;20.33;9.63;;;;;;;5.39;59.20;99773.44;5030459;28;20013;-68
2023/03/06 06:39:10;;;;;;;19.48;8.63;;;;;;;5.38;58.72;99763.75;5030244;28;20036;-68
2023/03/06 06:41:36;;;;;;;20.58;9.30;;;;;;;5.39;58.81;99754.81;5029316;28;20041;-69
2023/03/06 06:44:06;;;;;;;19.00;9.07;;;;;;;5.54;58.61;99766.94;5029933;28;20034;-69
2023/03/06 06:46:32;;;;;;;18.92;9.07;;;;;;;5.61;58.38;99764.69;5011654;28;20022;-69
2023/03/06 06:48:58;;;;;;;17.15;9.25;;;;;;;5.63;58.29;99763.59;5029153;28;20033;-68
2023/03/06 06:51:24;;;;;;;18.67;9.45;;;;;;;5.56;58.37;99757.06;5009626;28;20036;-68
2023/03/06 06:53:52;;;;;;;19.27;9.57;;;;;;;5.74;57.80;99768.91;5025559;28;20690;-68
2023/03/06 06:56:18;;;;;;;21.42;10.68;;;;;;;5.88;57.22;99766.09;5027100;28;20032;-68
2023/03/06 06:58:43;;;;;;;20.77;10.40;;;;;;;5.94;56.91;99772.75;5029321;28;20045;-69
2023/03/06 07:01:11;;;;;;;25.25;11.07;;;;;;;5.93;57.17;99784.38;5028905;28;20072;-69
2023/03/06 07:03:37;;;;;;;20.67;10.43;;;;;;;5.88;57.53;99775.88;5029373;28;20056;-69
2023/03/06 07:06:04;;;;;;;17.70;9.68;;;;;;;5.90;57.60;99771.31;5030135;28;20428;-69
2023/03/06 07:08:30;;;;;;;20.90;11.02;;;;;;;5.85;57.40;99763.66;5012019;28;20029;-69
2023/03/06 07:10:55;;;;;;;20.70;11.55;;;;;;;5.96;57.56;99787.63;5029849;28;20485;-69
2023/03/06 07:13:21;;;;;;;21.85;10.82;;;;;;;5.96;57.74;99779.63;5030122;28;20042;-69
2023/03/06 07:15:47;;;;;;;26.58;12.07;;;;;;;5.92;57.90;99770.22;5031391;28;20029;-69
2023/03/06 07:18:12;;;;;;;17.98;10.45;;;;;;;5.98;58.13;99777.72;5014059;28;20040;-68
2023/03/06 07:20:38;;;;;;;21.63;11.50;;;;;;;6.11;57.73;99782.94;5013569;28;20033;-69
2023/03/06 07:23:06;;;;;;;19.27;10.75;;;;;;;6.10;57.98;99784.72;5029905;28;20428;-68
2023/03/06 07:25:31;;;;;;;23.13;10.82;;;;;;;6.18;57.74;99795.66;5011352;28;20025;-68
2023/03/06 07:27:57;;;;;;;21.75;11.52;;;;;;;6.21;58.22;99789.22;5029950;28;20162;-69
2023/03/06 07:30:23;;;;;;;19.65;11.90;;;;;;;6.22;57.71;99789.09;5029918;28;20055;-69
2023/03/06 07:32:51;;;;;;;22.35;12.00;;;;;;;6.18;57.52;99777.00;5029703;28;20060;-69
2023/03/06 07:35:17;;;;;;;24.15;11.70;;;;;;;6.35;57.54;99789.84;5029627;28;20057;-69
2023/03/06 07:37:43;;;;;;;24.13;12.98;;;;;;;6.48;57.87;99795.88;5029332;28;20077;-69
2023/03/06 07:40:09;;;;;;;23.63;12.65;;;;;;;6.47;57.16;99785.34;5011607;28;20029;-69
2023/03/06 07:42:35;;;;;;;23.83;11.80;;;;;;;6.65;57.29;99784.72;5011595;28;20025;-68
2023/03/06 07:45:02;;;;;;;22.77;13.25;;;;;;;6.70;57.16;99769.22;5029234;28;20028;-68
2023/03/06 07:47:27;;;;;;;23.60;13.18;;;;;;;6.95;56.98;99787.59;5029535;28;20419;-68
2023/03/06 07:49:55;;;;;;;22.70;12.38;;;;;;;7.17;56.38;99777.81;5029743;28;20037;-69
2023/03/06 07:52:21;;;;;;;19.83;12.23;;;;;;;7.37;56.61;99782.34;5028799;28;20389;-68
2023/03/06 07:54:47;;;;;;;23.15;12.45;;;;;;;7.61;55.71;99780.31;5022764;28;20499;-70
2023/03/06 07:57:13;;;;;;;24.45;13.27;;;;;;;7.83;55.15;99785.53;5011380;28;20040;-70
2023/03/06 07:59:39;;;;;;;22.73;13.27;;;;;;;7.93;53.73;99773.91;5028844;28;20368;-70
2023/03/06 08:02:04;;;;;;;28.15;15.85;;;;;;;8.26;52.77;99783.56;5011132;28;20385;-70
2023/03/06 08:04:30;;;;;;;22.52;14.15;;;;;;;8.41;52.16;99783.06;5028799;28;20484;-70
2023/03/06 08:06:58;;;;;;;25.63;16.42;;;;;;;8.51;51.28;99791.13;5028752;28;20036;-68
2023/03/06 08:09:24;;;;;;;19.98;12.93;;;;;;;8.62;51.74;99780.34;5028666;28;20033;-69
2023/03/06 08:11:49;;;;;;;20.25;11.82;;;;;;;8.72;50.84;99782.06;5028668;28;20119;-69
2023/03/06 08:14:15;;;;;;;21.48;12.75;;;;;;;8.85;50.86;99777.31;5028650;28;20614;-69
2023/03/06 08:16:40;;;;;;;23.48;14.52;;;;;;;8.92;50.96;99780.28;5028531;28;20025;-69
2023/03/06 08:19:06;;;;;;;19.38;12.55;;;;;;;9.03;50.03;99782.84;5010700;28;20072;-69
2023/03/06 08:21:31;;;;;;;21.70;12.40;;;;;;;9.12;49.71;99773.97;5010451;28;20633;-69
2023/03/06 08:23:57;;;;;;;18.60;11.65;;;;;;;9.21;49.65;99771.31;5028305;28;20108;-69
2023/03/06 08:26:25;;;;;;;15.65;9.32;;;;;;;9.38;48.31;99763.59;5028450;28;20044;-69
2023/03/06 08:28:52;;;;;;;19.25;11.40;;;;;;;9.73;48.25;99764.69;5028441;28;20756;-70
2023/03/06 08:31:35;;;;;;;25.05;14.65;;;;;;;10.33;45.91;99764.31;5010877;28;20099;-70
2023/03/06 08:34:03;;;;;;;21.23;13.05;;;;;;;10.52;45.34;99758.03;5028700;28;20507;-69
2023/03/06 08:36:29;;;;;;;16.30;11.30;;;;;;;10.61;44.61;99755.28;5027891;28;20061;-69
2023/03/06 08:38:55;;;;;;;16.85;10.43;;;;;;;10.69;44.11;99765.28;5010537;28;20021;-69
2023/03/06 08:41:21;;;;;;;16.85;10.82;;;;;;;10.75;44.21;99757.50;5028316;28;20041;-69
2023/03/06 08:43:47;;;;;;;18.55;11.40;;;;;;;10.85;43.89;99765.47;5010452;28;20033;-69
2023/03/06 08:46:13;;;;;;;18.75;10.75;;;;;;;10.83;43.98;99768.28;5028336;28;20493;-69
2023/03/06 08:48:38;;;;;;;19.00;11.35;;;;;;;10.72;44.22;99762.28;5028299;28;20100;-70
2023/03/06 08:51:04;;;;;;;22.00;10.52;;;;;;;10.62;43.83;99758.81;5028443;28;20025;-70
2023/03/06 08:53:30;;;;;;;15.07;9.55;;;;;;;10.55;44.26;99760.41;5028001;28;20032;-70
2023/03/06 08:55:55;;;;;;;18.83;11.07;;;;;;;10.45;44.35;99768.47;5028188;28;20045;-70
2023/03/06 08:58:21;;;;;;;18.20;10.50;;;;;;;10.29;44.20;99744.13;5028297;28;20029;-70
2023/03/06 09:00:46;;;;;;;16.85;9.60;;;;;;;10.34;44.91;99765.13;5028165;28;20432;-70
2023/03/06 09:03:12;;;;;;;18.50;10.48;;;;;;;10.25;45.22;99760.69;5009963;28;20217;-70
2023/03/06 09:05:39;;;;;;;18.40;10.07;;;;;;;10.30;45.84;99764.59;5010307;28;20040;-69
2023/03/06 09:08:05;;;;;;;19.17;9.82;;;;;;;10.41;45.64;99769.75;5027543;28;20681;-70
2023/03/06 09:10:30;;;;;;;17.98;10.75;;;;;;;10.40;45.52;99754.69;5027666;28;20041;-69
2023/03/06 09:12:55;;;;;;;17.88;10.35;;;;;;;10.55;44.73;99749.69;5008739;28;20025;-70
2023/03/06 09:15:22;;;;;;;17.50;10.05;;;;;;;10.83;44.27;99756.72;5027575;28;20029;-69
2023/03/06 09:17:47;;;;;;;17.73;10.85;;;;;;;11.24;44.34;99759.72;5027817;28;20110;-69
2023/03/06 09:20:13;;;;;;;15.52;10.18;;;;;;;11.29;43.37;99761.94;5010525;28;20041;-69
2023/03/06 09:22:41;;;;;;;13.57;9.68;;;;;;;11.28;42.88;99763.78;5010272;28;20029;-70
2023/03/06 09:25:08;;;;;;;16.33;10.27;;;;;;;11.13;43.43;99748.34;5010295;28;20037;-70
2023/03/06 09:27:34;;;;;;;17.42;11.07;;;;;;;11.08;43.35;99756.84;5007424;28;20448;-68
2023/03/06 09:30:00;;;;;;;16.30;9.82;;;;;;;10.87;43.63;99736.66;5027380;28;20060;-69
2023/03/06 09:32:26;;;;;;;14.48;9.55;;;;;;;10.88;44.18;99757.97;5027878;28;20021;-69
2023/03/06 09:34:51;;;;;;;15.35;9.57;;;;;;;10.77;43.94;99752.78;5027410;28;20170;-70
2023/03/06 09:37:17;;;;;;;16.45;10.85;;;;;;;10.74;44.08;99747.72;5026846;28;20448;-69
2023/03/06 09:39:43;;;;;;;16.05;10.60;;;;;;;10.69;44.54;99755.41;5027729;28;20033;-69
2023/03/06 09:42:14;;;;;;;16.42;10.45;;;;;;;10.61;44.66;99752.59;5028058;28;20036;-69
2023/03/06 09:44:43;;;;;;;15.93;9.90;;;;;;;10.62;45.41;99750.78;5027033;28;20029;-70
2023/03/06 09:47:37;;;;;;;15.57;10.27;;;;;;;10.64;45.10;99743.44;5028713;28;20867;-70
2023/03/06 09:50:29;;;;;;;17.25;10.88;;;;;;;10.64;45.06;99730.03;5031615;28;20384;-70
2023/03/06 09:53:01;;;;;;;20.58;11.73;;;;;;;10.97;44.75;99724.84;5013779;28;20040;-69
2023/03/06 09:55:37;;;;;;;17.38;11.15;;;;;;;11.44;43.92;99702.16;5031245;28;20164;-69
2023/03/06 09:58:10;;;;;;;17.48;11.02;;;;;;;12.74;41.50;99713.53;5031593;28;20108;-68
2023/03/06 10:00:41;;;;;;;18.42;10.88;;;;;;;14.13;40.17;99709.81;5031065;28;20052;-68
2023/03/06 10:03:32;;;;;;;15.80;11.10;;;;;;;15.29;37.28;99704.41;5031074;28;20404;-68
2023/03/06 10:06:03;;;;;;;16.63;11.25;;;;;;;15.49;36.42;99697.53;5031439;28;20064;-68
2023/03/06 10:08:54;;;;;;;15.50;10.00;;;;;;;15.09;36.33;99704.00;5031239;28;20047;-68
2023/03/06 10:12:03;;;;;;;14.05;9.07;;;;;;;14.70;36.75;99707.78;5031120;28;20703;-68
2023/03/06 10:15:16;;;;;;;13.20;8.45;;;;;;;14.67;36.74;99692.78;5030936;28;20044;-68
2023/03/06 10:17:42;;;;;;;13.60;8.98;;;;;;;14.52;37.13;99694.53;4950116;29;20106;-69
2023/03/06 10:20:16;;;;;;;13.48;8.77;;;;;;;14.21;37.39;99690.03;5003117;28;20500;-69
2023/03/06 10:22:49;;;;;;;13.82;9.43;;;;;;;13.80;37.56;99686.59;5030729;28;20028;-69
2023/03/06 10:25:47;;;;;;;14.73;9.43;;;;;;;13.71;38.38;99693.03;5030790;28;20025;-69
2023/03/06 10:28:24;;;;;;;14.02;8.82;;;;;;;13.50;38.51;99690.00;5009323;28;20463;-69
2023/03/06 10:31:14;;;;;;;13.25;9.18;;;;;;;13.55;38.94;99690.34;5029773;28;20064;-69
2023/03/06 10:34:07;;;;;;;12.32;9.27;;;;;;;13.39;38.96;99690.34;5029900;28;20044;-68
2023/03/06 10:36:32;;;;;;;16.05;10.80;;;;;;;13.14;39.27;99672.47;5031768;28;20041;-69
2023/03/06 10:38:58;;;;;;;15.50;9.80;;;;;;;13.04;39.85;99674.47;5031976;28;20029;-69
2023/03/06 10:41:27;;;;;;;16.80;9.90;;;;;;;12.73;40.51;99670.66;5031646;28;20037;-70
2023/03/06 10:43:58;;;;;;;16.05;9.95;;;;;;;12.59;39.64;99665.91;5031548;28;20029;-69
2023/03/06 10:46:45;;;;;;;17.10;9.63;;;;;;;12.38;40.33;99673.59;5031617;28;20045;-70
2023/03/06 10:49:24;;;;;;;12.25;8.63;;;;;;;12.18;40.88;99672.97;5031754;28;20108;-69
2023/03/06 10:52:05;;;;;;;14.00;9.18;;;;;;;12.01;40.48;99668.53;5013532;28;20040;-69
2023/03/06 10:54:36;;;;;;;13.30;8.55;;;;;;;11.71;40.87;99662.78;5031392;28;20028;-69
2023/03/06 10:57:31;;;;;;;12.30;8.35;;;;;;;11.55;42.04;99664.31;5031685;28;20040;-69
2023/03/06 10:59:59;;;;;;;;;;;;;;;11.38;41.84;99646.41;5018883;28;20057;-69
2023/03/06 11:02:37;;;;;;;13.63;8.35;;;;;;;11.26;42.32;99642.28;5031975;28;19921;-69
2023/03/06 11:05:05;;;;;;;14.43;9.80;;;;;;;11.16;42.66;99644.19;5030657;28;20060;-69
2023/03/06 11:07:35;;;;;;;15.52;9.00;;;;;;;11.04;42.91;99634.72;5013927;28;20025;-69
2023/03/06 11:10:16;;;;;;;16.10;9.13;;;;;;;10.94;43.10;99641.97;5029651;28;20025;-69
2023/03/06 11:12:42;;;;;;;15.15;8.30;;;;;;;10.78;43.48;99636.50;5030559;28;20087;-70
2023/03/06 11:15:20;;;;;;;14.98;8.20;;;;;;;10.70;44.42;99640.91;5031317;28;20041;-71
2023/03/06 11:17:57;;;;;;;14.13;8.38;;;;;;;10.63;43.99;99634.47;5013130;28;20056;-71
2023/03/06 11:20:31;;;;;;;12.30;8.65;;;;;;;10.51;44.21;99638.38;5030999;28;20029;-69
2023/03/06 11:23:17;;;;;;;17.20;8.63;;;;;;;10.39;44.19;99629.69;5011357;28;20041;-70
2023/03/06 11:26:14;;;;;;;18.80;8.80;;;;;;;10.33;44.86;99622.25;5030959;28;20056;-70
2023/03/06 11:29:14;;;;;;;16.10;9.45;;;;;;;10.31;44.45;99608.16;5028077;28;20500;-70
2023/03/06 11:32:17;;;;;;;17.02;9.10;;;;;;;10.37;44.49;99604.88;5012911;28;20029;-68